Time;durP1;ratioP1;P1;durP2;ratioP2;P2;SDS_P1;SDS_P2;PMS_P1;PMS_P2;Temp;Humidity;BMP_temperature;BMP_pressure;BME280_temperature;BME280_humidity;BME280_pressure;Samples;Min_cycle;Max_cycle;Signal;HPM_P1;HPM_P2
2022/06/07 00:00:25;;;;;;;7.95;4.38;;;21.20;77.70;;;;;;5077883;28;20209;-76
2022/06/07 00:02:55;;;;;;;7.82;4.72;;;21.20;77.90;;;;;;5085184;28;20204;-77
2022/06/07 00:05:23;;;;;;;7.15;4.90;;;21.20;78.00;;;;;;5087341;28;20273;-76
2022/06/07 00:07:54;;;;;;;7.77;4.73;;;21.10;78.10;;;;;;5082017;28;20400;-77
2022/06/07 00:10:23;;;;;;;9.57;4.97;;;21.10;78.20;;;;;;5086164;28;20795;-77
2022/06/07 00:12:51;;;;;;;7.93;4.80;;;21.10;78.30;;;;;;5085562;28;20209;-77
2022/06/07 00:15:21;;;;;;;7.05;4.95;;;21.10;78.40;;;;;;5086396;28;20221;-76
2022/06/07 00:17:49;;;;;;;9.65;4.95;;;21.10;78.60;;;;;;5081394;28;20225;-76
2022/06/07 00:20:20;;;;;;;11.60;5.03;;;21.10;78.80;;;;;;5084436;28;20190;-76
2022/06/07 00:22:48;;;;;;;10.48;4.72;;;21.00;78.80;;;;;;5085766;28;20201;-76
2022/06/07 00:25:18;;;;;;;8.70;4.72;;;21.00;78.90;;;;;;5079686;28;20195;-76
2022/06/07 00:27:46;;;;;;;11.70;5.17;;;21.00;79.10;;;;;;5079829;28;20198;-76
2022/06/07 00:30:15;;;;;;;6.68;4.88;;;21.00;79.20;;;;;;5085219;28;20204;-77
2022/06/07 00:32:45;;;;;;;7.63;4.78;;;21.00;79.30;;;;;;5080344;28;20198;-76
2022/06/07 00:35:15;;;;;;;8.13;5.10;;;21.00;79.50;;;;;;5085174;28;20228;-76
2022/06/07 00:37:45;;;;;;;7.33;4.87;;;20.90;79.50;;;;;;5082374;28;20250;-77
2022/06/07 00:40:14;;;;;;;7.27;4.63;;;20.90;79.50;;;;;;5086563;28;20190;-77
2022/06/07 00:42:43;;;;;;;9.13;5.22;;;20.90;79.60;;;;;;5085158;28;20244;-76
2022/06/07 00:45:15;;;;;;;7.27;5.50;;;20.90;79.70;;;;;;5085119;28;20193;-77
2022/06/07 00:47:44;;;;;;;6.63;5.00;;;20.90;79.80;;;;;;5087071;28;20229;-77
2022/06/07 00:50:21;;;;;;;7.07;4.97;;;20.90;79.80;;;;;;5084396;28;20198;-77
2022/06/07 00:52:50;;;;;;;7.73;5.20;;;20.80;79.80;;;;;;5080896;28;20198;-77
2022/06/07 00:55:19;;;;;;;7.75;5.55;;;20.80;79.80;;;;;;5084389;28;20200;-77
2022/06/07 00:57:47;;;;;;;9.20;5.70;;;20.80;79.90;;;;;;5080119;28;20201;-78
2022/06/07 01:00:19;;;;;;;9.80;5.80;;;20.80;80.00;;;;;;5077802;28;20221;-79
2022/06/07 01:02:47;;;;;;;8.80;5.70;;;20.80;80.10;;;;;;5082245;28;20202;-78
2022/06/07 01:05:16;;;;;;;9.00;5.60;;;20.80;80.10;;;;;;5079338;28;20205;-78
2022/06/07 01:10:47;;;;;;;8.13;5.40;;;20.80;80.30;;;;;;5057666;28;20200;-78
2022/06/07 01:13:18;;;;;;;10.15;5.57;;;20.70;80.50;;;;;;5075040;28;20190;-77
2022/06/07 01:15:47;;;;;;;9.87;5.57;;;20.70;80.50;;;;;;5079235;28;20233;-77
2022/06/07 01:18:16;;;;;;;8.60;5.37;;;20.70;80.60;;;;;;5083894;28;20580;-78
2022/06/07 01:20:45;;;;;;;10.43;5.82;;;20.70;80.70;;;;;;5078056;28;20289;-78
2022/06/07 01:23:15;;;;;;;8.10;5.40;;;20.70;80.80;;;;;;5077521;28;20196;-79
2022/06/07 01:25:43;;;;;;;7.80;5.23;;;20.70;80.90;;;;;;5074545;28;20201;-78
2022/06/07 01:28:11;;;;;;;8.13;5.37;;;20.70;81.00;;;;;;5081889;28;20670;-79
2022/06/07 01:30:40;;;;;;;9.43;5.15;;;20.60;80.90;;;;;;5083582;28;20202;-78
2022/06/07 01:33:08;;;;;;;9.13;5.07;;;20.60;81.00;;;;;;5081443;28;20206;-78
2022/06/07 01:35:37;;;;;;;13.00;6.00;;;20.60;81.10;;;;;;5076459;28;20201;-76
2022/06/07 01:38:05;;;;;;;7.43;4.93;;;20.60;82.10;;;;;;5085667;28;20197;-77
2022/06/07 01:43:20;;;;;;;9.80;5.07;;;20.50;81.30;;;;;;5082309;28;20609;-76
2022/06/07 01:45:49;;;;;;;8.23;5.23;;;20.50;81.30;;;;;;5084311;28;20229;-76
2022/06/07 01:48:17;;;;;;;6.87;5.03;;;20.50;81.30;;;;;;5082682;28;20237;-77
2022/06/07 01:50:45;;;;;;;6.83;4.27;;;20.50;81.30;;;;;;5077768;28;20247;-76
2022/06/07 01:53:14;;;;;;;8.43;5.63;;;20.40;81.30;;;;;;5082698;28;20201;-76
2022/06/07 01:55:43;;;;;;;11.20;4.77;;;20.50;81.40;;;;;;5086934;28;20198;-76
2022/06/07 01:58:12;;;;;;;7.77;4.83;;;20.40;81.40;;;;;;5081735;28;20194;-76
2022/06/07 02:00:40;;;;;;;10.73;4.87;;;20.40;81.50;;;;;;5082989;28;20662;-77
2022/06/07 02:03:09;;;;;;;6.70;4.73;;;20.40;81.60;;;;;;5082653;28;20201;-76
2022/06/07 02:05:37;;;;;;;7.57;5.23;;;20.40;81.80;;;;;;5083308;28;20201;-77
2022/06/07 02:08:06;;;;;;;8.47;5.03;;;20.40;81.70;;;;;;5080896;28;20197;-76
2022/06/07 02:10:35;;;;;;;9.63;5.30;;;20.40;81.90;;;;;;5082638;28;20807;-77
2022/06/07 02:13:04;;;;;;;7.90;5.00;;;20.40;81.90;;;;;;5076412;28;20189;-77
2022/06/07 02:15:33;;;;;;;8.03;5.50;;;20.40;81.90;;;;;;5078532;28;20316;-77
2022/06/07 02:18:02;;;;;;;8.57;5.47;;;20.30;81.90;;;;;;5084188;28;20225;-78
2022/06/07 02:20:30;;;;;;;7.93;5.23;;;20.30;81.90;;;;;;5079954;28;20212;-79
2022/06/07 02:22:58;;;;;;;8.03;5.00;;;20.30;81.90;;;;;;5082514;28;20194;-78
2022/06/07 02:25:27;;;;;;;9.13;5.13;;;20.30;82.00;;;;;;5082429;28;20204;-79
2022/06/07 02:27:55;;;;;;;10.93;5.50;;;20.30;82.10;;;;;;5079316;28;20194;-78
2022/06/07 02:30:25;;;;;;;7.83;5.17;;;20.30;82.10;;;;;;5082385;28;20200;-78
2022/06/07 02:32:54;;;;;;;7.53;5.10;;;20.30;82.10;;;;;;5082665;28;20203;-78
2022/06/07 02:35:23;;;;;;;12.13;5.77;;;20.30;82.10;;;;;;5084520;28;20205;-77
2022/06/07 02:37:51;;;;;;;8.63;5.17;;;20.30;82.10;;;;;;5081844;28;20686;-77
2022/06/07 02:40:20;;;;;;;6.53;4.87;;;20.30;82.10;;;;;;5085134;28;20795;-77
2022/06/07 02:42:48;;;;;;;8.73;5.10;;;20.30;82.10;;;;;;5092294;28;20207;-78
2022/06/07 02:45:17;;;;;;;10.33;5.33;;;20.30;82.20;;;;;;5084541;28;20193;-78
2022/06/07 02:47:47;;;;;;;10.33;5.17;;;20.30;82.10;;;;;;5076416;28;20193;-78
2022/06/07 02:50:15;;;;;;;11.27;5.57;;;20.20;82.10;;;;;;5082889;28;20186;-78
2022/06/07 02:52:44;;;;;;;10.83;6.27;;;20.20;82.20;;;;;;5078139;28;20198;-79
2022/06/07 02:55:12;;;;;;;11.50;5.80;;;20.20;82.20;;;;;;5080946;28;20204;-78
2022/06/07 02:57:41;;;;;;;12.60;5.63;;;20.20;82.40;;;;;;5077947;28;20217;-79
2022/06/07 03:00:13;;;;;;;13.17;6.43;;;20.20;82.40;;;;;;5081910;28;20198;-78
2022/06/07 03:02:42;;;;;;;9.13;6.70;;;20.20;82.40;;;;;;5080497;28;20190;-78
2022/06/07 03:05:12;;;;;;;12.70;6.47;;;20.20;82.40;;;;;;5084205;28;20661;-78
2022/06/07 03:07:41;;;;;;;13.07;7.43;;;20.20;82.40;;;;;;5072685;28;20730;-77
2022/06/07 03:10:12;;;;;;;13.03;6.53;;;20.20;82.50;;;;;;5072568;28;20194;-77
2022/06/07 03:12:40;;;;;;;10.93;5.97;;;20.20;82.40;;;;;;5076496;28;20263;-78
2022/06/07 03:15:10;;;;;;;8.87;5.70;;;20.20;82.40;;;;;;5085157;28;20222;-78
2022/06/07 03:17:39;;;;;;;7.93;5.40;;;20.30;82.70;;;;;;5080423;28;20268;-77
2022/06/07 03:20:09;;;;;;;11.97;5.87;;;20.30;82.80;;;;;;5080724;28;20190;-78
2022/06/07 03:22:39;;;;;;;8.40;5.50;;;20.30;82.90;;;;;;5080190;28;20193;-79
2022/06/07 03:25:10;;;;;;;8.63;4.93;;;20.30;82.80;;;;;;5079736;28;20194;-78
2022/06/07 03:27:40;;;;;;;7.23;4.57;;;20.30;82.90;;;;;;5084924;28;20551;-79
2022/06/07 03:30:10;;;;;;;6.73;4.57;;;20.30;83.10;;;;;;5078987;28;20202;-79
2022/06/07 03:32:39;;;;;;;9.82;5.25;;;20.30;83.00;;;;;;5082313;28;20796;-79
2022/06/07 03:35:08;;;;;;;5.83;3.97;;;20.40;83.60;;;;;;5077319;28;20285;-79
2022/06/07 03:37:37;;;;;;;5.80;4.27;;;20.40;83.60;;;;;;5092832;28;20213;-80
2022/06/07 03:40:13;;;;;;;7.50;4.40;;;20.40;84.30;;;;;;5086130;28;20194;-79
2022/06/07 03:42:42;;;;;;;11.97;4.73;;;20.40;84.30;;;;;;5079667;28;20197;-79
2022/06/07 03:45:11;;;;;;;7.60;4.13;;;20.40;83.30;;;;;;5091570;28;20193;-79
2022/06/07 03:47:39;;;;;;;7.77;4.47;;;20.40;83.30;;;;;;5076334;28;20196;-78
2022/06/07 03:50:09;;;;;;;6.07;3.77;;;20.40;83.20;;;;;;5083713;28;20193;-77
2022/06/07 03:52:38;;;;;;;8.87;3.53;;;20.40;83.10;;;;;;5086177;28;20646;-79
2022/06/07 03:55:07;;;;;;;8.70;3.97;;;20.40;83.10;;;;;;5080704;28;20199;-78
2022/06/07 03:57:37;;;;;;;5.50;3.73;;;20.40;83.00;;;;;;5079890;28;20209;-78
2022/06/07 04:00:07;;;;;;;6.53;3.67;;;20.40;83.00;;;;;;5080658;28;20194;-80
2022/06/07 04:02:35;;;;;;;7.37;3.63;;;20.50;83.00;;;;;;5080744;28;20226;-78
2022/06/07 04:05:04;;;;;;;5.23;3.77;;;20.50;83.00;;;;;;5091696;28;20199;-78
2022/06/07 04:10:19;;;;;;;11.27;3.63;;;20.60;82.90;;;;;;5076460;28;20863;-79
2022/06/07 04:12:48;;;;;;;10.40;4.00;;;20.60;82.80;;;;;;5082041;28;20553;-78
2022/06/07 04:15:18;;;;;;;10.93;4.67;;;20.70;82.80;;;;;;5082744;28;20722;-78
2022/06/07 04:17:46;;;;;;;8.87;4.00;;;20.70;82.70;;;;;;5081626;28;20236;-78
2022/06/07 04:20:16;;;;;;;5.63;4.00;;;20.80;82.70;;;;;;5076076;28;21311;-77
2022/06/07 04:22:45;;;;;;;11.93;4.00;;;20.80;82.70;;;;;;5079899;28;20205;-78
2022/06/07 04:25:13;;;;;;;11.43;4.63;;;20.80;82.70;;;;;;5084758;28;20216;-80
2022/06/07 04:27:41;;;;;;;6.87;3.73;;;20.90;82.70;;;;;;5083225;28;20855;-78
2022/06/07 04:30:13;;;;;;;7.38;3.75;;;20.90;82.60;;;;;;5087654;28;20197;-79
2022/06/07 04:32:46;;;;;;;7.07;3.38;;;21.00;82.50;;;;;;5078921;28;20201;-78
2022/06/07 04:35:17;;;;;;;8.05;3.35;;;21.00;82.40;;;;;;5078591;28;20272;-78
2022/06/07 04:37:47;;;;;;;7.57;3.40;;;21.10;82.50;;;;;;5077541;28;20224;-78
2022/06/07 04:40:16;;;;;;;5.70;3.22;;;21.10;83.10;;;;;;5077888;28;20198;-79
2022/06/07 04:42:44;;;;;;;5.05;3.20;;;21.20;82.20;;;;;;5086609;28;20201;-78
2022/06/07 04:45:16;;;;;;;5.03;3.33;;;21.30;82.10;;;;;;5081572;28;20643;-79
2022/06/07 04:47:46;;;;;;;4.88;3.22;;;21.40;81.90;;;;;;5090645;28;20185;-78
2022/06/07 04:50:18;;;;;;;6.20;3.00;;;21.40;81.70;;;;;;5082392;28;20197;-78
2022/06/07 04:52:47;;;;;;;8.27;2.83;;;21.40;81.50;;;;;;5082552;28;20197;-77
2022/06/07 04:55:17;;;;;;;4.55;2.88;;;21.50;81.30;;;;;;5081347;28;20201;-78
2022/06/07 04:57:45;;;;;;;6.50;3.60;;;21.50;81.10;;;;;;5083990;28;20297;-79
2022/06/07 05:00:18;;;;;;;8.63;2.97;;;21.60;81.10;;;;;;5086265;28;20576;-78
2022/06/07 05:02:48;;;;;;;5.00;3.47;;;21.70;81.10;;;;;;5086311;28;20201;-80
2022/06/07 05:05:18;;;;;;;4.75;3.08;;;21.70;81.00;;;;;;5088857;28;20190;-77
2022/06/07 05:07:46;;;;;;;6.30;3.88;;;21.80;80.90;;;;;;5081460;28;20209;-79
2022/06/07 05:10:16;;;;;;;5.28;3.60;;;21.80;80.80;;;;;;5083221;28;20193;-77
2022/06/07 05:12:45;;;;;;;7.88;3.30;;;21.90;80.60;;;;;;5084151;28;20228;-77
2022/06/07 05:15:14;;;;;;;4.18;2.97;;;21.90;80.30;;;;;;5091038;28;20245;-79
2022/06/07 05:17:43;;;;;;;4.78;3.38;;;22.00;80.30;;;;;;5078833;28;20742;-79
2022/06/07 05:20:12;;;;;;;5.40;3.50;;;22.10;80.20;;;;;;5088389;28;20204;-79
2022/06/07 05:22:41;;;;;;;6.40;3.25;;;22.10;80.00;;;;;;5082832;28;20201;-80
2022/06/07 05:25:09;;;;;;;4.88;3.38;;;22.20;79.90;;;;;;5084174;28;20194;-79
2022/06/07 05:27:43;;;;;;;5.15;3.58;;;22.30;79.70;;;;;;5083990;28;20204;-78
2022/06/07 05:30:14;;;;;;;5.25;3.35;;;22.30;79.60;;;;;;5091075;28;20193;-79
2022/06/07 05:32:44;;;;;;;5.15;3.10;;;22.30;79.60;;;;;;5082740;28;20198;-80
2022/06/07 05:35:15;;;;;;;9.00;3.72;;;22.40;79.80;;;;;;5084782;28;20190;-81
2022/06/07 05:37:43;;;;;;;4.90;3.22;;;22.40;79.70;;;;;;5082908;28;20209;-80
2022/06/07 05:40:12;;;;;;;6.03;3.30;;;22.50;79.50;;;;;;5093404;28;20193;-80
2022/06/07 05:42:41;;;;;;;6.65;3.55;;;22.60;79.30;;;;;;5077749;28;20205;-81
2022/06/07 05:45:11;;;;;;;7.32;3.45;;;22.60;79.20;;;;;;5082044;28;20525;-80
2022/06/07 05:47:41;;;;;;;6.43;3.55;;;22.70;79.20;;;;;;5080437;28;20877;-79
2022/06/07 05:50:11;;;;;;;7.55;3.63;;;22.80;79.20;;;;;;5085762;28;20185;-80
2022/06/07 05:52:40;;;;;;;4.90;3.10;;;22.80;78.80;;;;;;5087051;28;20197;-80
2022/06/07 05:55:09;;;;;;;6.20;3.20;;;22.90;78.50;;;;;;5086570;28;20208;-80
2022/06/07 05:57:38;;;;;;;7.82;3.03;;;23.00;78.30;;;;;;5083469;28;20201;-79
2022/06/07 06:00:07;;;;;;;6.70;3.40;;;23.00;78.10;;;;;;5092344;28;20224;-81
2022/06/07 06:02:36;;;;;;;8.23;3.08;;;23.10;77.90;;;;;;5086868;28;20224;-81
2022/06/07 06:05:05;;;;;;;5.13;2.90;;;23.20;77.70;;;;;;5084857;28;20395;-80
2022/06/07 06:07:35;;;;;;;6.10;2.83;;;23.20;77.50;;;;;;5081730;28;20205;-79
2022/06/07 06:10:21;;;;;;;5.63;3.22;;;23.30;77.40;;;;;;5092714;28;20209;-79
2022/06/07 06:12:49;;;;;;;7.28;2.60;;;23.40;77.20;;;;;;5087224;28;20188;-80
2022/06/07 06:15:18;;;;;;;4.63;2.50;;;23.40;76.90;;;;;;5079731;28;20234;-79
2022/06/07 06:17:46;;;;;;;6.28;2.60;;;23.50;76.20;;;;;;5082221;28;20190;-79
2022/06/07 06:20:15;;;;;;;3.38;2.22;;;23.60;75.80;;;;;;5077778;28;20209;-79
2022/06/07 06:22:45;;;;;;;5.88;2.63;;;23.70;75.90;;;;;;5086722;28;20203;-78
2022/06/07 06:25:14;;;;;;;3.60;2.58;;;23.70;75.80;;;;;;5083523;28;20602;-81
2022/06/07 06:27:43;;;;;;;2.72;1.98;;;23.80;75.30;;;;;;5081021;28;20756;-79
2022/06/07 06:30:15;;;;;;;6.30;2.45;;;23.90;75.00;;;;;;5086782;28;20603;-79
2022/06/07 06:32:44;;;;;;;6.63;2.10;;;24.00;74.70;;;;;;5081799;28;20647;-79
2022/06/07 06:35:12;;;;;;;2.85;2.00;;;24.00;74.70;;;;;;5080686;28;20200;-80
2022/06/07 06:37:41;;;;;;;5.40;2.20;;;24.10;74.50;;;;;;5092603;28;20240;-80
2022/06/07 06:40:12;;;;;;;3.35;2.08;;;24.20;74.50;;;;;;5087890;28;20214;-79
2022/06/07 06:42:41;;;;;;;4.22;1.85;;;24.30;73.40;;;;;;5079217;28;20218;-79
2022/06/07 06:45:11;;;;;;;5.72;2.10;;;24.30;72.60;;;;;;5083191;28;20345;-79
2022/06/07 06:47:39;;;;;;;3.97;1.80;;;24.40;72.50;;;;;;5081945;28;20941;-79
2022/06/07 06:50:08;;;;;;;3.05;1.83;;;24.50;72.10;;;;;;5085580;28;20205;-79
2022/06/07 06:52:38;;;;;;;3.85;2.10;;;24.60;71.90;;;;;;5083358;28;20297;-80
2022/06/07 06:55:07;;;;;;;2.67;1.55;;;24.70;71.00;;;;;;5091300;28;20673;-80
2022/06/07 06:57:37;;;;;;;2.70;1.65;;;24.70;69.10;;;;;;5077968;28;20193;-80
2022/06/07 07:00:08;;;;;;;3.58;1.58;;;24.80;69.10;;;;;;5091911;28;20217;-80
2022/06/07 07:02:36;;;;;;;2.40;1.80;;;24.80;67.90;;;;;;5082170;28;20187;-80
2022/06/07 07:05:06;;;;;;;2.40;1.77;;;24.90;68.10;;;;;;5086178;28;20201;-80
2022/06/07 07:07:35;;;;;;;3.17;1.90;;;24.90;67.80;;;;;;5088547;28;20228;-80
2022/06/07 07:10:04;;;;;;;2.97;1.50;;;25.00;67.50;;;;;;5090179;28;20208;-79
2022/06/07 07:12:32;;;;;;;3.30;1.73;;;25.00;66.90;;;;;;5080887;28;20255;-80
2022/06/07 07:15:04;;;;;;;9.75;2.05;;;25.10;67.00;;;;;;5078972;28;20703;-80
2022/06/07 07:17:33;;;;;;;2.53;1.70;;;25.20;67.10;;;;;;5078814;28;20197;-79
2022/06/07 07:20:01;;;;;;;1.95;1.35;;;25.20;66.50;;;;;;5081164;28;20847;-80
2022/06/07 07:22:29;;;;;;;2.53;1.70;;;25.30;66.30;;;;;;5085188;28;20197;-79
2022/06/07 07:24:58;;;;;;;5.45;1.52;;;25.40;65.80;;;;;;5082484;28;20698;-80
2022/06/07 07:27:27;;;;;;;1.88;1.45;;;25.40;64.70;;;;;;5085704;28;20197;-79
2022/06/07 07:29:55;;;;;;;3.03;1.50;;;25.40;64.50;;;;;;5084491;28;20205;-78
2022/06/07 07:32:26;;;;;;;4.00;1.65;;;25.50;64.90;;;;;;5078121;28;20193;-80
2022/06/07 07:34:55;;;;;;;3.38;1.55;;;25.50;63.40;;;;;;5084439;28;20682;-80
2022/06/07 07:37:24;;;;;;;2.63;1.52;;;25.60;62.60;;;;;;5088793;28;20810;-79
2022/06/07 07:39:54;;;;;;;1.90;1.58;;;25.60;62.30;;;;;;5068908;28;20210;-76
2022/06/07 07:42:22;;;;;;;2.10;1.70;;;25.70;61.70;;;;;;5075868;28;20206;-77
2022/06/07 07:44:50;;;;;;;3.40;1.73;;;25.70;61.50;;;;;;5073582;28;20743;-77
2022/06/07 07:47:19;;;;;;;3.25;1.40;;;25.80;61.20;;;;;;5080364;28;20277;-77
2022/06/07 07:49:49;;;;;;;2.90;1.60;;;25.80;61.80;;;;;;5077952;28;20190;-76
2022/06/07 07:52:19;;;;;;;2.70;1.30;;;25.90;61.00;;;;;;5085243;28;20206;-76
2022/06/07 07:54:48;;;;;;;2.65;1.40;;;25.90;60.80;;;;;;5079359;28;20624;-78
2022/06/07 07:57:16;;;;;;;1.60;1.30;;;25.90;60.10;;;;;;5079657;28;20718;-76
2022/06/07 07:59:44;;;;;;;2.60;1.05;;;25.90;58.90;;;;;;5087642;28;20228;-76
2022/06/07 08:02:18;;;;;;;1.98;1.27;;;26.00;58.80;;;;;;5078969;28;20197;-77
2022/06/07 08:04:48;;;;;;;4.40;1.52;;;26.00;58.10;;;;;;5081830;28;20190;-74
2022/06/07 08:07:17;;;;;;;2.55;1.58;;;26.00;58.60;;;;;;5085378;28;20209;-74
2022/06/07 08:09:45;;;;;;;2.08;1.20;;;26.10;58.70;;;;;;5081161;28;20202;-76
2022/06/07 08:12:15;;;;;;;3.22;2.10;;;26.10;59.40;;;;;;5076797;28;20198;-74
2022/06/07 08:14:43;;;;;;;4.03;1.40;;;26.20;58.50;;;;;;5086034;28;20244;-76
2022/06/07 08:17:11;;;;;;;2.10;1.20;;;26.20;58.20;;;;;;5080619;28;20189;-75
2022/06/07 08:19:40;;;;;;;2.25;1.25;;;26.30;58.40;;;;;;5081435;28;20843;-76
2022/06/07 08:22:11;;;;;;;2.42;1.30;;;26.30;58.10;;;;;;5079882;28;20285;-75
2022/06/07 08:24:40;;;;;;;2.53;1.35;;;26.40;58.60;;;;;;5081668;28;20213;-75
2022/06/07 08:27:09;;;;;;;1.65;1.20;;;26.50;58.70;;;;;;5081315;28;20191;-75
2022/06/07 08:29:38;;;;;;;4.80;1.50;;;26.50;58.40;;;;;;5082856;28;20222;-75
2022/06/07 08:32:08;;;;;;;2.03;1.20;;;26.50;57.10;;;;;;5083152;28;20198;-78
2022/06/07 08:37:37;;;;;;;2.05;1.30;;;26.50;56.50;;;;;;5076984;28;20272;-79
2022/06/07 08:40:11;;;;;;;2.17;1.10;;;26.60;56.70;;;;;;5072780;28;20293;-79
2022/06/07 08:42:48;;;;;;;2.80;1.35;;;26.70;56.80;;;;;;5079323;28;20198;-78
2022/06/07 08:45:20;;;;;;;1.95;1.25;;;26.70;55.70;;;;;;5076576;28;20200;-79
2022/06/07 08:47:52;;;;;;;3.30;1.50;;;26.70;56.30;;;;;;5080577;28;20190;-80
2022/06/07 08:50:25;;;;;;;1.77;1.20;;;26.80;56.20;;;;;;5077691;28;20183;-79
2022/06/07 08:52:58;;;;;;;2.50;1.20;;;26.80;56.40;;;;;;5084660;28;20342;-79
2022/06/07 08:55:33;;;;;;;2.40;1.30;;;26.90;56.60;;;;;;5076721;28;20247;-79
2022/06/07 08:58:12;;;;;;;4.32;1.27;;;27.00;57.00;;;;;;5084732;28;20301;-78
2022/06/07 09:00:48;;;;;;;3.80;1.42;;;27.00;56.70;;;;;;5086282;28;20201;-81
2022/06/07 09:03:45;;;;;;;1.85;1.30;;;27.10;55.60;;;;;;5084161;28;20185;-79
2022/06/07 09:06:20;;;;;;;1.95;1.20;;;27.10;55.50;;;;;;5077791;28;20288;-78
2022/06/07 09:08:52;;;;;;;3.42;1.20;;;27.20;55.90;;;;;;5084013;28;20190;-79
2022/06/07 09:14:20;;;;;;;1.83;1.10;;;27.30;56.10;;;;;;5081658;28;20849;-79
2022/06/07 09:16:49;;;;;;;2.33;1.33;;;27.30;55.20;;;;;;5086628;28;20196;-79
2022/06/07 09:19:21;;;;;;;1.92;1.38;;;27.40;55.10;;;;;;5077969;28;20672;-79
2022/06/07 09:21:50;;;;;;;4.68;1.35;;;27.60;55.80;;;;;;5078624;28;20297;-77
2022/06/07 09:24:28;;;;;;;1.52;1.02;;;27.70;55.70;;;;;;5091926;28;20632;-82
2022/06/07 09:27:15;;;;;;;3.38;0.98;;;27.70;52.30;;;;;;5080312;28;20255;-81
2022/06/07 09:29:53;;;;;;;1.52;0.90;;;27.70;53.00;;;;;;5083880;28;20280;-79
2022/06/07 09:32:24;;;;;;;2.00;0.90;;;27.80;53.50;;;;;;5082818;28;20272;-79
2022/06/07 09:34:58;;;;;;;3.17;1.02;;;27.90;53.80;;;;;;5083542;28;20198;-83
2022/06/07 09:37:31;;;;;;;3.15;1.05;;;27.80;53.00;;;;;;5083820;28;20228;-81
2022/06/07 09:40:30;;;;;;;2.45;0.90;;;27.90;52.60;;;;;;5080255;28;20186;-80
2022/06/07 09:43:05;;;;;;;1.95;0.98;;;27.90;51.60;;;;;;5083848;28;20652;-79
2022/06/07 09:45:38;;;;;;;1.23;1.02;;;27.90;51.70;;;;;;5085894;28;20197;-80
2022/06/07 09:48:32;;;;;;;3.72;1.05;;;28.00;51.70;;;;;;5078448;28;20185;-79
2022/06/07 09:51:03;;;;;;;1.55;0.68;;;28.00;51.70;;;;;;5081948;28;20278;-79
2022/06/07 09:53:36;;;;;;;1.95;0.93;;;28.10;51.70;;;;;;5089199;28;20209;-79
2022/06/07 09:56:21;;;;;;;1.80;1.00;;;28.10;50.30;;;;;;5075799;28;20194;-78
2022/06/07 09:59:10;;;;;;;3.80;0.73;;;28.20;50.20;;;;;;5083052;28;20299;-79
2022/06/07 10:01:44;;;;;;;1.50;0.90;;;28.30;50.30;;;;;;5077088;28;20293;-80
2022/06/07 10:04:23;;;;;;;1.45;0.98;;;28.30;50.80;;;;;;5080074;28;20192;-81
2022/06/07 10:06:57;;;;;;;5.10;1.10;;;28.30;50.90;;;;;;5070821;28;20189;-79
2022/06/07 10:09:57;;;;;;;1.88;1.27;;;28.20;50.50;;;;;;5078437;28;20308;-78
2022/06/07 10:12:34;;;;;;;3.78;1.00;;;28.20;51.00;;;;;;5081559;28;20193;-77
2022/06/07 10:15:22;;;;;;;1.67;1.00;;;28.20;51.00;;;;;;5082171;28;20298;-80
2022/06/07 10:18:10;;;;;;;3.08;0.98;;;28.20;51.10;;;;;;5082115;28;20197;-79
2022/06/07 10:20:58;;;;;;;2.65;1.00;;;28.20;50.90;;;;;;5085349;28;20284;-80
2022/06/07 10:23:37;;;;;;;3.83;1.23;;;28.30;51.20;;;;;;5083277;28;20244;-79
2022/06/07 10:26:18;;;;;;;1.52;0.93;;;28.30;51.50;;;;;;5079076;28;20650;-79
2022/06/07 10:29:03;;;;;;;1.73;0.88;;;28.30;52.10;;;;;;5075288;28;20196;-80
2022/06/07 10:31:43;;;;;;;1.00;0.80;;;28.20;50.00;;;;;;5081016;28;20198;-78
2022/06/07 10:34:19;;;;;;;1.35;0.80;;;28.20;49.90;;;;;;5086196;28;20207;-80
2022/06/07 10:36:57;;;;;;;2.70;1.10;;;28.20;49.00;;;;;;5083917;28;20190;-80
2022/06/07 10:39:41;;;;;;;1.05;0.85;;;28.30;49.20;;;;;;5080895;28;20202;-78
2022/06/07 10:42:23;;;;;;;2.00;0.90;;;28.40;50.00;;;;;;5081369;28;20222;-79
2022/06/07 10:45:05;;;;;;;2.13;0.90;;;28.50;49.70;;;;;;5082069;28;20239;-79
2022/06/07 10:47:38;;;;;;;3.80;0.80;;;28.40;50.10;;;;;;5091522;28;20194;-78
2022/06/07 10:50:19;;;;;;;2.13;1.00;;;28.40;49.60;;;;;;5080699;28;20197;-77
2022/06/07 10:52:57;;;;;;;6.18;0.85;;;28.30;48.80;;;;;;5081574;28;20193;-78
2022/06/07 10:55:31;;;;;;;1.23;0.80;;;28.30;49.70;;;;;;5081614;28;20219;-79
2022/06/07 10:58:07;;;;;;;1.58;1.00;;;28.30;49.90;;;;;;5084728;28;20204;-79
2022/06/07 11:00:43;;;;;;;3.80;1.13;;;28.30;50.00;;;;;;5084235;28;20193;-78
2022/06/07 11:03:23;;;;;;;3.00;1.13;;;28.30;50.30;;;;;;5085411;28;20204;-77
2022/06/07 11:11:39;;;;;;;2.28;0.73;;;28.60;50.10;;;;;;5082913;28;20722;-80
2022/06/07 11:14:19;;;;;;;1.45;0.85;;;28.70;50.30;;;;;;5089331;28;20193;-77
2022/06/07 11:16:57;;;;;;;1.42;0.90;;;28.80;50.10;;;;;;5069325;28;20216;-78
2022/06/07 11:19:26;;;;;;;1.85;1.00;;;28.80;49.80;;;;;;5078252;28;20193;-80
2022/06/07 11:21:58;;;;;;;4.13;0.98;;;28.80;49.20;;;;;;5078980;28;20221;-79
2022/06/07 11:24:33;;;;;;;2.75;1.10;;;28.80;49.00;;;;;;5076484;28;20194;-79
2022/06/07 11:27:21;;;;;;;2.58;0.80;;;28.80;48.90;;;;;;5076669;28;20259;-79
2022/06/07 11:29:50;;;;;;;2.95;1.10;;;28.70;49.70;;;;;;5081819;28;20186;-80
2022/06/07 11:32:55;;;;;;;2.30;1.08;;;28.70;49.50;;;;;;5079408;28;20553;-80
2022/06/07 11:35:55;;;;;;;1.92;1.20;;;28.60;50.00;;;;;;4996004;28;20189;-79
2022/06/07 11:38:28;;;;;;;2.88;1.00;;;28.60;49.80;;;;;;5082973;28;20195;-79
2022/06/07 11:41:41;;;;;;;1.98;1.20;;;28.50;49.80;;;;;;5075031;28;20208;-78
2022/06/07 11:44:35;;;;;;;4.95;1.30;;;28.40;50.20;;;;;;5075909;28;20285;-79
2022/06/07 11:47:28;;;;;;;1.55;0.93;;;28.40;50.70;;;;;;5073231;28;20181;-78
2022/06/07 11:50:27;;;;;;;1.50;1.00;;;28.30;50.80;;;;;;5074671;28;20198;-78
2022/06/07 11:53:00;;;;;;;2.05;1.50;;;28.30;51.10;;;;;;5084087;28;20217;-80
2022/06/07 11:55:40;;;;;;;2.97;1.67;;;28.20;50.20;;;;;;5077864;28;20201;-79
2022/06/07 11:58:09;;;;;;;1.77;1.25;;;28.20;50.00;;;;;;5082398;28;20198;-77
2022/06/07 12:00:42;;;;;;;3.15;1.08;;;28.30;51.20;;;;;;5088255;28;20677;-79
2022/06/07 12:03:31;;;;;;;2.22;1.40;;;28.30;50.70;;;;;;5080453;28;20275;-78
2022/06/07 12:06:18;;;;;;;2.38;1.10;;;28.30;50.70;;;;;;5093124;28;20197;-78
2022/06/07 12:08:59;;;;;;;1.33;1.10;;;28.30;50.90;;;;;;5079701;28;20197;-79
2022/06/07 12:11:32;;;;;;;2.72;1.35;;;28.30;50.90;;;;;;5087814;28;20206;-79
2022/06/07 12:14:29;;;;;;;2.40;1.10;;;28.40;51.10;;;;;;5079061;28;20678;-81
2022/06/07 12:17:00;;;;;;;1.88;0.90;;;28.30;50.40;;;;;;5076159;28;20194;-81
2022/06/07 12:19:32;;;;;;;1.20;0.90;;;28.40;50.10;;;;;;5079322;28;20194;-79
2022/06/07 12:22:13;;;;;;;1.40;0.98;;;28.40;50.00;;;;;;5087779;28;20205;-80
2022/06/07 12:24:43;;;;;;;2.03;1.30;;;28.40;50.20;;;;;;5084062;28;20190;-79
2022/06/07 12:27:22;;;;;;;2.03;1.25;;;28.50;50.20;;;;;;5092665;28;20197;-81
2022/06/07 12:29:53;;;;;;;2.20;1.08;;;28.50;50.00;;;;;;5082882;28;20201;-79
2022/06/07 12:32:30;;;;;;;2.20;1.08;;;28.50;49.10;;;;;;5080819;28;20190;-80
2022/06/07 12:35:15;;;;;;;2.15;1.33;;;28.40;48.40;;;;;;5086406;28;20189;-81
2022/06/07 12:37:48;;;;;;;2.00;1.20;;;28.40;48.70;;;;;;5076840;28;20655;-80
2022/06/07 12:40:31;;;;;;;1.35;1.00;;;28.50;49.30;;;;;;5079040;28;20189;-80
2022/06/07 12:43:01;;;;;;;1.30;1.00;;;28.50;49.60;;;;;;5083956;28;20201;-80
2022/06/07 12:45:33;;;;;;;1.98;1.13;;;28.50;49.20;;;;;;5090127;28;20210;-79
2022/06/07 12:48:09;;;;;;;3.85;2.08;;;28.50;49.40;;;;;;5079073;28;20250;-80
2022/06/07 12:50:42;;;;;;;2.17;1.20;;;28.50;49.70;;;;;;5075492;28;20201;-81
2022/06/07 12:53:20;;;;;;;2.88;1.00;;;28.60;50.20;;;;;;5086379;28;20759;-80
2022/06/07 12:55:57;;;;;;;1.75;1.10;;;28.60;49.90;;;;;;5076040;28;20806;-80
2022/06/07 12:58:29;;;;;;;2.80;1.55;;;28.70;49.90;;;;;;5088576;28;20650;-81
2022/06/07 13:00:58;;;;;;;2.35;1.10;;;28.70;49.70;;;;;;5083422;28;20713;-79
2022/06/07 13:03:29;;;;;;;3.08;1.40;;;28.70;49.70;;;;;;5084898;28;20232;-80
2022/06/07 13:06:01;;;;;;;3.53;1.65;;;28.70;49.30;;;;;;5077249;28;20197;-79
2022/06/07 13:08:36;;;;;;;5.47;1.60;;;28.80;49.70;;;;;;5081114;28;20277;-80
2022/06/07 13:11:07;;;;;;;5.00;1.33;;;28.90;49.70;;;;;;5079436;28;20196;-80
2022/06/07 13:13:39;;;;;;;4.05;1.60;;;28.90;49.50;;;;;;5081919;28;20181;-80
2022/06/07 13:16:36;;;;;;;3.53;1.33;;;29.10;50.00;;;;;;5081269;28;20304;-80
2022/06/07 13:19:20;;;;;;;2.78;1.08;;;29.20;49.40;;;;;;5082278;28;20956;-80
2022/06/07 13:22:00;;;;;;;3.53;1.00;;;29.30;49.40;;;;;;5044268;28;20696;-80
2022/06/07 13:24:41;;;;;;;0.77;0.73;;;29.50;49.50;;;;;;5085524;28;20198;-79
2022/06/07 13:27:43;;;;;;;1.85;1.02;;;29.60;48.80;;;;;;5080353;28;20536;-80
2022/06/07 13:30:24;;;;;;;3.70;1.20;;;29.60;48.40;;;;;;4999444;28;20203;-81
2022/06/07 13:33:02;;;;;;;3.70;1.30;;;29.70;48.80;;;;;;5084342;28;20197;-80